createdAt,value
2023-05-24T00:00:06.357Z,14.25
2023-05-24T00:02:33.225Z,14.21
2023-05-24T00:05:01.213Z,14.16
2023-05-24T00:07:28.170Z,14.07
2023-05-24T00:09:55.051Z,14.03
2023-05-24T00:12:21.765Z,14.04
2023-05-24T00:14:48.502Z,14.02
2023-05-24T00:17:15.249Z,13.97
2023-05-24T00:19:42.857Z,13.93
2023-05-24T00:22:09.702Z,13.91
2023-05-24T00:24:36.518Z,13.86
2023-05-24T00:27:03.362Z,13.86
2023-05-24T00:29:32.200Z,13.88
2023-05-24T00:31:59.264Z,13.82
2023-05-24T00:34:26.036Z,13.79
2023-05-24T00:36:52.774Z,13.76
2023-05-24T00:39:19.547Z,13.74
2023-05-24T00:41:46.317Z,13.67
2023-05-24T00:44:13.237Z,13.61
2023-05-24T00:46:40.178Z,13.59
2023-05-24T00:49:07.256Z,13.55
2023-05-24T00:51:35.023Z,13.50
2023-05-24T00:54:01.965Z,13.48
2023-05-24T00:56:29.305Z,13.46
2023-05-24T00:58:56.572Z,13.48
2023-05-24T01:01:26.858Z,13.47
2023-05-24T01:03:54.848Z,13.43
2023-05-24T01:06:22.056Z,13.46
2023-05-24T01:08:58.287Z,13.46
2023-05-24T01:11:34.924Z,13.45
2023-05-24T01:14:27.530Z,13.44
2023-05-24T01:17:06.054Z,13.35
2023-05-24T01:19:45.586Z,13.34
2023-05-24T01:22:28.926Z,13.31
2023-05-24T01:25:18.420Z,13.27
2023-05-24T01:27:46.597Z,13.22
2023-05-24T01:30:14.314Z,13.18
2023-05-24T01:32:41.239Z,13.16
2023-05-24T01:35:08.527Z,13.15
2023-05-24T01:37:35.276Z,13.13
2023-05-24T01:40:02.668Z,13.11
2023-05-24T01:42:52.492Z,13.06
2023-05-24T01:45:30.144Z,13.08
2023-05-24T01:48:31.934Z,13.04
2023-05-24T01:51:01.491Z,12.99
2023-05-24T01:53:34.964Z,12.96
2023-05-24T01:56:06.333Z,12.93
2023-05-24T01:58:34.715Z,12.93
2023-05-24T02:01:02.698Z,12.94
2023-05-24T02:03:29.771Z,12.93
2023-05-24T02:05:56.514Z,12.90
2023-05-24T02:08:23.435Z,12.93
2023-05-24T02:10:50.247Z,12.92
2023-05-24T02:13:18.283Z,12.89
2023-05-24T02:15:45.248Z,12.89
2023-05-24T02:18:13.198Z,12.90
2023-05-24T02:20:40.896Z,12.89
2023-05-24T02:23:07.881Z,12.90
2023-05-24T02:25:34.651Z,12.88
2023-05-24T02:28:01.723Z,12.83
2023-05-24T02:30:28.652Z,12.79
2023-05-24T02:32:56.248Z,12.79
2023-05-24T02:35:26.016Z,12.81
2023-05-24T02:37:52.836Z,12.82
2023-05-24T02:40:19.627Z,12.79
2023-05-24T02:42:46.437Z,12.79
2023-05-24T02:45:13.240Z,12.82
2023-05-24T02:47:40.023Z,12.83
2023-05-24T02:50:07.300Z,12.86
2023-05-24T02:52:34.051Z,12.80
2023-05-24T02:55:00.934Z,12.77
2023-05-24T02:57:28.893Z,12.71
2023-05-24T02:59:56.179Z,12.61
2023-05-24T03:02:23.281Z,12.58
2023-05-24T03:04:50.217Z,12.57
2023-05-24T03:07:17.446Z,12.47
2023-05-24T03:09:44.264Z,12.36
2023-05-24T03:12:11.239Z,12.29
2023-05-24T03:14:37.924Z,12.22
2023-05-24T03:17:04.813Z,12.19
2023-05-24T03:19:31.543Z,12.19
2023-05-24T03:21:58.346Z,12.15
2023-05-24T03:24:26.176Z,12.10
2023-05-24T03:26:52.948Z,12.08
2023-05-24T03:29:19.688Z,12.04
2023-05-24T03:31:46.587Z,11.99
2023-05-24T03:34:13.416Z,12.00
2023-05-24T03:36:40.166Z,11.98
2023-05-24T03:39:07.899Z,11.93
2023-05-24T03:41:34.805Z,11.94
2023-05-24T03:44:01.568Z,11.90
2023-05-24T03:46:28.508Z,11.94
2023-05-24T03:48:55.368Z,11.92
2023-05-24T03:51:24.514Z,11.93
2023-05-24T03:53:51.246Z,11.95
2023-05-24T03:56:18.023Z,11.94
2023-05-24T03:58:44.837Z,11.89
2023-05-24T04:01:21.875Z,11.84
2023-05-24T04:03:56.147Z,11.86
2023-05-24T04:06:28.946Z,11.86
2023-05-24T04:08:56.954Z,11.84
2023-05-24T04:11:24.347Z,11.88
2023-05-24T04:13:51.537Z,11.87
2023-05-24T04:16:18.338Z,11.89
2023-05-24T04:18:45.545Z,11.85
2023-05-24T04:21:12.498Z,11.76
2023-05-24T04:23:39.256Z,11.72
2023-05-24T04:26:06.180Z,11.76
2023-05-24T04:28:33.350Z,11.77
2023-05-24T04:31:00.295Z,11.74
2023-05-24T04:33:27.823Z,11.75
2023-05-24T04:35:54.580Z,11.68
2023-05-24T04:38:22.047Z,11.65
2023-05-24T04:40:49.200Z,11.67
2023-05-24T04:43:15.956Z,11.66
2023-05-24T04:45:42.700Z,11.70
2023-05-24T04:48:09.836Z,11.67
2023-05-24T04:50:37.790Z,11.64
2023-05-24T04:53:05.175Z,11.69
2023-05-24T04:55:32.776Z,11.72
2023-05-24T04:57:59.786Z,11.69
2023-05-24T05:00:26.586Z,11.66
2023-05-24T05:02:53.569Z,11.62
2023-05-24T05:05:21.377Z,11.61
2023-05-24T05:07:48.170Z,11.58
2023-05-24T05:10:15.018Z,11.55
2023-05-24T05:12:41.902Z,11.58
2023-05-24T05:15:09.275Z,11.55
2023-05-24T05:17:36.489Z,11.50
2023-05-24T05:20:04.427Z,11.51
2023-05-24T05:22:31.392Z,11.48
2023-05-24T05:24:58.215Z,11.48
2023-05-24T05:27:24.904Z,11.55
2023-05-24T05:29:51.695Z,11.57
2023-05-24T05:32:18.583Z,11.58
2023-05-24T05:34:46.687Z,11.60
2023-05-24T05:37:13.544Z,11.63
2023-05-24T05:39:40.252Z,11.63
2023-05-24T05:42:07.360Z,11.63
2023-05-24T05:44:34.188Z,11.67
2023-05-24T05:47:01.026Z,11.71
2023-05-24T05:49:27.907Z,11.73
2023-05-24T05:51:54.858Z,11.75
2023-05-24T05:54:21.631Z,11.76
2023-05-24T05:56:48.510Z,11.77
2023-05-24T05:59:16.106Z,11.83
2023-05-24T06:01:44.064Z,11.87
2023-05-24T06:04:11.058Z,11.94
2023-05-24T06:06:38.112Z,11.95
2023-05-24T06:09:04.848Z,11.97
2023-05-24T06:11:31.797Z,12.04
2023-05-24T06:13:58.599Z,12.14
2023-05-24T06:16:25.516Z,12.20
2023-05-24T06:19:04.587Z,12.24
2023-05-24T06:21:33.092Z,12.30
2023-05-24T06:24:02.697Z,12.39
2023-05-24T06:26:29.929Z,12.42
2023-05-24T06:28:56.728Z,12.51
2023-05-24T06:31:23.703Z,12.60
2023-05-24T06:34:02.692Z,12.67
2023-05-24T06:36:30.237Z,12.67
2023-05-24T06:38:56.982Z,12.66
2023-05-24T06:41:23.924Z,12.64
2023-05-24T06:43:50.693Z,12.68
2023-05-24T06:46:17.524Z,12.72
2023-05-24T06:48:44.360Z,12.82
2023-05-24T06:51:11.978Z,12.90
2023-05-24T06:53:39.418Z,12.99
2023-05-24T06:56:09.439Z,13.05
2023-05-24T06:58:36.724Z,13.09
2023-05-24T07:01:05.232Z,13.19
2023-05-24T07:03:32.558Z,13.25
2023-05-24T07:05:59.571Z,13.30
2023-05-24T07:08:26.568Z,13.33
2023-05-24T07:10:57.086Z,13.34
2023-05-24T07:13:23.859Z,13.40
2023-05-24T07:15:50.873Z,13.45
2023-05-24T07:18:17.721Z,13.49
2023-05-24T07:20:44.719Z,13.57
2023-05-24T07:23:12.148Z,13.70
2023-05-24T07:25:38.960Z,13.86
2023-05-24T07:28:06.027Z,14.03
2023-05-24T07:30:33.095Z,14.15
2023-05-24T07:33:00.325Z,14.32
2023-05-24T07:35:28.791Z,14.46
2023-05-24T07:37:55.613Z,14.62
2023-05-24T07:40:23.519Z,14.83
2023-05-24T07:42:50.447Z,15.11
2023-05-24T07:45:17.175Z,15.43
2023-05-24T07:47:44.002Z,15.59
2023-05-24T07:50:11.795Z,15.72
2023-05-24T07:52:38.958Z,15.79
2023-05-24T07:55:06.685Z,16.16
2023-05-24T07:57:34.081Z,16.29
2023-05-24T08:00:07.325Z,16.64
2023-05-24T08:02:34.950Z,16.80
2023-05-24T08:05:01.866Z,16.85
2023-05-24T08:07:28.889Z,17.09
2023-05-24T08:09:55.791Z,17.69
2023-05-24T08:12:22.922Z,17.96
2023-05-24T08:14:49.595Z,18.09
2023-05-24T08:17:16.434Z,18.30
2023-05-24T08:19:43.187Z,18.62
2023-05-24T08:22:09.925Z,19.16
2023-05-24T08:24:36.936Z,19.90
2023-05-24T08:27:04.591Z,20.07
2023-05-24T08:29:31.542Z,19.93
2023-05-24T08:31:58.939Z,19.99
2023-05-24T08:34:25.797Z,20.13
2023-05-24T08:36:53.896Z,20.13
2023-05-24T08:39:20.877Z,20.18
2023-05-24T08:41:57.345Z,19.77
2023-05-24T08:44:48.231Z,19.30
2023-05-24T08:47:15.905Z,18.92
2023-05-24T08:49:43.238Z,18.73
2023-05-24T08:52:12.264Z,18.83
2023-05-24T08:54:39.964Z,19.64
2023-05-24T08:57:07.187Z,19.93
2023-05-24T08:59:33.927Z,20.24
2023-05-24T09:02:02.858Z,20.87
2023-05-24T09:04:31.061Z,21.64
2023-05-24T09:06:58.586Z,21.71
2023-05-24T09:09:28.482Z,21.21
2023-05-24T09:11:59.278Z,20.75
2023-05-24T09:14:25.998Z,20.28
2023-05-24T09:16:53.249Z,20.44
2023-05-24T09:19:20.243Z,20.05
2023-05-24T09:21:49.634Z,19.40
2023-05-24T09:24:16.923Z,18.74
2023-05-24T09:26:43.690Z,18.44
2023-05-24T09:29:10.510Z,18.21
2023-05-24T09:31:39.705Z,18.10
2023-05-24T09:34:11.185Z,18.49
2023-05-24T09:36:43.246Z,18.46
2023-05-24T09:39:10.787Z,18.36
2023-05-24T09:41:38.370Z,18.48
2023-05-24T09:44:06.279Z,18.61
2023-05-24T09:46:38.675Z,18.49
2023-05-24T09:49:08.175Z,18.57
2023-05-24T09:51:39.217Z,18.80
2023-05-24T09:54:06.315Z,18.88
2023-05-24T09:56:34.835Z,18.87
2023-05-24T09:59:08.834Z,18.75
2023-05-24T10:01:36.363Z,18.69
2023-05-24T10:04:09.478Z,18.71
2023-05-24T10:06:54.309Z,18.71
2023-05-24T10:09:21.101Z,19.36
2023-05-24T10:11:48.509Z,19.46
2023-05-24T10:14:15.853Z,19.24
2023-05-24T10:16:42.687Z,19.03
2023-05-24T10:19:09.969Z,18.82
2023-05-24T10:21:41.619Z,18.60
2023-05-24T10:24:11.300Z,18.47
2023-05-24T10:26:39.969Z,18.36
2023-05-24T10:29:10.786Z,18.22
2023-05-24T10:31:41.137Z,18.12
2023-05-24T10:34:09.453Z,18.08
2023-05-24T10:36:37.787Z,17.96
2023-05-24T10:39:05.128Z,17.85
2023-05-24T10:41:39.912Z,17.82
2023-05-24T10:44:12.107Z,17.80
2023-05-24T10:47:13.624Z,17.77
2023-05-24T10:49:52.485Z,17.65
2023-05-24T10:52:20.115Z,17.70
2023-05-24T10:55:10.633Z,17.74
2023-05-24T10:57:40.018Z,17.71
2023-05-24T11:03:02.463Z,17.91
2023-05-24T11:05:50.011Z,18.10
2023-05-24T11:08:36.328Z,18.35
2023-05-24T11:11:22.152Z,18.44
2023-05-24T11:13:50.797Z,18.51
2023-05-24T11:16:38.089Z,18.54
2023-05-24T11:19:19.823Z,18.76
2023-05-24T11:21:48.752Z,18.90
2023-05-24T11:24:19.372Z,19.15
2023-05-24T11:26:47.038Z,19.40
2023-05-24T11:29:18.083Z,19.44
2023-05-24T11:32:06.146Z,19.55
2023-05-24T11:34:34.411Z,19.76
2023-05-24T11:37:02.648Z,19.82
2023-05-24T11:39:33.252Z,19.83
2023-05-24T11:42:00.431Z,19.99
2023-05-24T11:44:31.676Z,20.15
2023-05-24T11:47:02.311Z,20.27
2023-05-24T11:49:29.550Z,20.47
2023-05-24T11:51:57.785Z,20.67
2023-05-24T11:54:25.518Z,20.60
2023-05-24T11:56:54.154Z,20.75
2023-05-24T11:59:29.137Z,20.72
2023-05-24T12:02:04.718Z,20.81
2023-05-24T12:04:33.299Z,20.63
2023-05-24T12:07:00.660Z,20.50
2023-05-24T12:09:28.821Z,20.59
2023-05-24T12:11:57.764Z,20.80
2023-05-24T12:14:34.679Z,20.88
2023-05-24T12:17:02.036Z,20.87
2023-05-24T12:19:36.846Z,20.93
2023-05-24T12:22:08.090Z,20.87
2023-05-24T12:24:35.533Z,20.82
2023-05-24T12:27:08.015Z,20.77
2023-05-24T12:29:36.836Z,20.86
2023-05-24T12:32:04.656Z,20.93
2023-05-24T12:34:31.544Z,20.88
2023-05-24T12:36:59.744Z,20.95
2023-05-24T12:39:32.400Z,21.10
2023-05-24T12:42:01.751Z,21.07
2023-05-24T12:44:34.732Z,21.23
2023-05-24T12:47:03.146Z,21.33
2023-05-24T12:49:31.744Z,21.32
2023-05-24T12:51:59.245Z,21.53
2023-05-24T12:54:27.979Z,21.87
2023-05-24T12:56:57.519Z,22.08
2023-05-24T12:59:25.789Z,22.08
2023-05-24T13:01:52.946Z,22.18
2023-05-24T13:04:22.063Z,22.13
2023-05-24T13:06:49.470Z,22.13
2023-05-24T13:09:21.825Z,22.34
2023-05-24T13:11:48.987Z,22.41
2023-05-24T13:14:16.865Z,22.67
2023-05-24T13:16:44.504Z,23.06
2023-05-24T13:19:12.028Z,23.26
2023-05-24T13:21:39.307Z,23.28
2023-05-24T13:24:07.789Z,23.29
2023-05-24T13:26:38.907Z,23.36
2023-05-24T13:31:38.065Z,22.98
2023-05-24T13:34:05.490Z,22.95
2023-05-24T13:36:32.507Z,22.97
2023-05-24T13:41:30.878Z,23.14
2023-05-24T13:43:58.235Z,23.12
2023-05-24T13:46:25.090Z,23.07
2023-05-24T13:48:52.318Z,22.80
2023-05-24T13:51:22.691Z,22.66
2023-05-24T13:53:49.821Z,22.60
2023-05-24T13:56:17.042Z,22.43
2023-05-24T13:58:43.920Z,22.32
2023-05-24T14:01:11.279Z,22.27
2023-05-24T14:03:40.403Z,22.13
2023-05-24T14:06:08.572Z,22.04
2023-05-24T14:08:35.665Z,21.87
2023-05-24T14:11:02.457Z,21.89
2023-05-24T14:16:00.175Z,21.85
2023-05-24T14:18:27.054Z,21.79
2023-05-24T14:20:53.840Z,21.66
2023-05-24T14:23:21.025Z,21.51
2023-05-24T14:25:47.853Z,21.52
2023-05-24T14:28:14.629Z,21.51
2023-05-24T14:30:42.174Z,21.54
2023-05-24T14:33:11.552Z,21.68
2023-05-24T14:35:40.064Z,21.80
2023-05-24T14:38:09.508Z,21.83
2023-05-24T14:40:37.328Z,21.75
2023-05-24T14:43:05.213Z,21.85
2023-05-24T14:45:32.553Z,21.83
2023-05-24T14:48:01.008Z,21.82
2023-05-24T14:50:28.660Z,21.82
2023-05-24T14:52:55.882Z,21.82
2023-05-24T14:55:23.102Z,21.95
2023-05-24T14:57:50.463Z,22.01
2023-05-24T15:00:20.545Z,22.07
2023-05-24T15:02:49.338Z,22.13
2023-05-24T15:05:16.209Z,22.20
2023-05-24T15:07:42.979Z,22.08
2023-05-24T15:10:10.028Z,21.99
2023-05-24T15:12:36.956Z,22.07
2023-05-24T15:15:05.110Z,22.12
2023-05-24T15:17:32.088Z,22.13
2023-05-24T15:19:59.910Z,22.05
2023-05-24T15:22:26.857Z,22.06
2023-05-24T15:24:53.580Z,22.16
2023-05-24T15:27:20.625Z,22.27
2023-05-24T15:29:47.543Z,22.25
2023-05-24T15:32:14.504Z,22.25
2023-05-24T15:34:41.330Z,22.21
2023-05-24T15:37:08.085Z,22.10
2023-05-24T15:39:34.934Z,21.97
2023-05-24T15:42:02.735Z,21.69
2023-05-24T15:44:29.589Z,21.61
2023-05-24T15:46:56.514Z,21.52
2023-05-24T15:49:23.471Z,21.48
2023-05-24T15:54:24.617Z,21.32
2023-05-24T15:56:51.880Z,21.34
2023-05-24T15:59:20.868Z,21.36
2023-05-24T16:01:48.435Z,21.16
2023-05-24T16:04:15.771Z,21.11
2023-05-24T16:06:42.921Z,21.04
2023-05-24T16:09:09.630Z,21.03
2023-05-24T16:11:36.380Z,20.95
2023-05-24T16:14:03.770Z,20.80
2023-05-24T16:16:30.610Z,20.71
2023-05-24T16:18:57.477Z,20.59
2023-05-24T16:21:24.546Z,20.58
2023-05-24T16:23:51.409Z,20.56
2023-05-24T16:26:18.286Z,20.60
2023-05-24T16:28:45.590Z,20.58
2023-05-24T16:31:12.638Z,20.45
2023-05-24T16:33:40.190Z,20.23
2023-05-24T16:36:07.171Z,20.09
2023-05-24T16:38:34.104Z,20.00
2023-05-24T16:41:00.946Z,19.91
2023-05-24T16:43:27.793Z,19.87
2023-05-24T16:45:55.375Z,19.82
2023-05-24T16:48:28.385Z,19.74
2023-05-24T16:50:58.393Z,19.71
2023-05-24T16:53:26.347Z,19.72
2023-05-24T16:55:54.268Z,19.72
2023-05-24T16:58:21.731Z,19.78
2023-05-24T17:00:48.629Z,19.78
2023-05-24T17:03:15.795Z,19.74
2023-05-24T17:05:43.618Z,19.69
2023-05-24T17:08:10.628Z,19.61
2023-05-24T17:10:37.389Z,19.60
2023-05-24T17:13:04.121Z,19.61
2023-05-24T17:15:30.929Z,19.54
2023-05-24T17:17:57.798Z,19.50
2023-05-24T17:20:24.566Z,19.34
2023-05-24T17:22:51.639Z,19.23
2023-05-24T17:25:18.439Z,19.12
2023-05-24T17:27:45.319Z,18.99
2023-05-24T17:30:12.463Z,18.87
2023-05-24T17:32:39.411Z,18.78
2023-05-24T17:35:06.256Z,18.72
2023-05-24T17:37:33.040Z,18.65
2023-05-24T17:39:59.791Z,18.73
2023-05-24T17:42:26.559Z,18.82
2023-05-24T17:44:53.477Z,18.85
2023-05-24T17:47:20.871Z,18.90
2023-05-24T17:49:47.619Z,18.95
2023-05-24T17:52:14.737Z,19.07
2023-05-24T17:54:41.665Z,19.10
2023-05-24T17:57:08.417Z,19.05
2023-05-24T17:59:35.175Z,18.97
2023-05-24T18:02:02.014Z,18.84
2023-05-24T18:04:28.800Z,18.75
2023-05-24T18:06:56.650Z,18.70
2023-05-24T18:09:23.389Z,18.68
2023-05-24T18:11:50.802Z,18.63
2023-05-24T18:14:18.460Z,18.59
2023-05-24T18:16:46.181Z,18.58
2023-05-24T18:19:13.010Z,18.57
2023-05-24T18:21:40.279Z,18.53
2023-05-24T18:24:07.375Z,18.45
2023-05-24T18:26:34.245Z,18.39
2023-05-24T18:29:01.187Z,18.27
2023-05-24T18:31:27.954Z,18.21
2023-05-24T18:33:55.226Z,18.18
2023-05-24T18:36:22.014Z,18.21
2023-05-24T18:38:48.866Z,18.25
2023-05-24T18:41:16.678Z,18.21
2023-05-24T18:43:43.547Z,18.25
2023-05-24T18:46:15.117Z,18.24
2023-05-24T18:48:42.360Z,18.19
2023-05-24T18:51:09.649Z,18.13
2023-05-24T18:53:36.583Z,18.12
2023-05-24T18:56:03.579Z,18.13
2023-05-24T18:58:31.112Z,18.09
2023-05-24T19:00:58.080Z,18.14
2023-05-24T19:03:25.225Z,18.10
2023-05-24T19:05:53.336Z,18.05
2023-05-24T19:08:20.118Z,18.08
2023-05-24T19:10:47.017Z,18.04
2023-05-24T19:13:14.616Z,17.97
2023-05-24T19:15:41.907Z,17.95
2023-05-24T19:18:08.873Z,17.87
2023-05-24T19:20:35.867Z,17.79
2023-05-24T19:23:02.793Z,17.79
2023-05-24T19:25:31.308Z,17.78
2023-05-24T19:28:00.478Z,17.77
2023-05-24T19:30:28.397Z,17.74
2023-05-24T19:32:55.376Z,17.77
2023-05-24T19:35:22.254Z,17.76
2023-05-24T19:37:49.073Z,17.74
2023-05-24T19:40:15.951Z,17.69
2023-05-24T19:42:42.757Z,17.66
2023-05-24T19:45:09.936Z,17.66
2023-05-24T19:47:36.770Z,17.68
2023-05-24T19:50:03.973Z,17.70
2023-05-24T19:52:30.813Z,17.71
2023-05-24T19:54:57.581Z,17.66
2023-05-24T19:57:24.450Z,17.59
2023-05-24T19:59:51.209Z,17.52
2023-05-24T20:02:18.013Z,17.48
2023-05-24T20:04:44.798Z,17.47
2023-05-24T20:07:11.626Z,17.44
2023-05-24T20:09:38.435Z,17.45
2023-05-24T20:12:05.358Z,17.43
2023-05-24T20:14:32.145Z,17.44
2023-05-24T20:16:59.518Z,17.42
2023-05-24T20:19:27.266Z,17.38
2023-05-24T20:21:54.431Z,17.34
2023-05-24T20:24:21.348Z,17.34
2023-05-24T20:26:48.775Z,17.29
2023-05-24T20:29:15.920Z,17.28
2023-05-24T20:31:42.788Z,17.27
2023-05-24T20:34:09.683Z,17.25
2023-05-24T20:36:36.978Z,17.24
2023-05-24T20:39:04.260Z,17.22
2023-05-24T20:41:31.378Z,17.20
2023-05-24T20:43:58.177Z,17.15
2023-05-24T20:46:25.114Z,17.13
2023-05-24T20:48:53.823Z,17.14
2023-05-24T20:51:23.060Z,17.14
2023-05-24T20:53:53.406Z,17.11
2023-05-24T20:56:21.457Z,17.08
2023-05-24T20:58:52.734Z,17.02
2023-05-24T21:01:20.781Z,17.04
2023-05-24T21:03:47.564Z,17.04
2023-05-24T21:06:14.448Z,17.05
2023-05-24T21:08:42.192Z,17.02
2023-05-24T21:11:08.941Z,16.96
2023-05-24T21:13:35.724Z,16.92
2023-05-24T21:16:03.198Z,16.92
2023-05-24T21:18:30.170Z,16.88
2023-05-24T21:20:56.866Z,16.84
2023-05-24T21:23:23.645Z,16.82
2023-05-24T21:25:50.396Z,16.78
2023-05-24T21:28:17.445Z,16.80
2023-05-24T21:30:44.229Z,16.80
2023-05-24T21:33:11.156Z,16.81
2023-05-24T21:35:38.453Z,16.82
2023-05-24T21:38:05.266Z,16.81
2023-05-24T21:40:32.049Z,16.77
2023-05-24T21:42:58.849Z,16.74
2023-05-24T21:45:25.661Z,16.69
2023-05-24T21:47:52.438Z,16.65
2023-05-24T21:50:19.253Z,16.59
2023-05-24T21:52:45.968Z,16.55
2023-05-24T21:55:12.736Z,16.51
2023-05-24T21:57:39.528Z,16.52
2023-05-24T22:00:06.938Z,16.50
2023-05-24T22:02:34.616Z,16.45
2023-05-24T22:05:01.582Z,16.41
2023-05-24T22:07:28.513Z,16.37
2023-05-24T22:09:55.466Z,16.41
2023-05-24T22:12:22.272Z,16.44
2023-05-24T22:14:49.109Z,16.43
2023-05-24T22:17:16.676Z,16.40
2023-05-24T22:19:44.164Z,16.40
2023-05-24T22:22:12.559Z,16.38
2023-05-24T22:24:39.454Z,16.39
2023-05-24T22:27:09.806Z,16.42
2023-05-24T22:29:37.090Z,16.43
2023-05-24T22:32:04.562Z,16.40
2023-05-24T22:34:31.786Z,16.39
2023-05-24T22:36:58.528Z,16.35
2023-05-24T22:39:25.864Z,16.33
2023-05-24T22:41:53.006Z,16.35
2023-05-24T22:44:20.439Z,16.33
2023-05-24T22:46:50.006Z,16.30
2023-05-24T22:49:19.704Z,16.28
2023-05-24T22:51:50.959Z,16.20
2023-05-24T22:54:18.001Z,16.14
2023-05-24T22:56:46.115Z,16.09
2023-05-24T22:59:12.929Z,16.06
2023-05-24T23:01:39.717Z,16.07
2023-05-24T23:04:18.754Z,16.01
2023-05-24T23:06:47.230Z,15.94
2023-05-24T23:09:14.148Z,15.93
2023-05-24T23:11:42.970Z,15.85
2023-05-24T23:14:11.602Z,15.82
2023-05-24T23:16:45.806Z,15.81
2023-05-24T23:19:18.714Z,15.83
2023-05-24T23:21:46.154Z,15.77
2023-05-24T23:24:15.931Z,15.75
2023-05-24T23:26:43.435Z,15.73
2023-05-24T23:29:10.313Z,15.72
2023-05-24T23:31:37.269Z,15.70
2023-05-24T23:34:04.797Z,15.69
2023-05-24T23:36:31.718Z,15.71
2023-05-24T23:38:58.542Z,15.70
2023-05-24T23:41:26.518Z,15.69
2023-05-24T23:43:53.332Z,15.70
2023-05-24T23:46:20.642Z,15.71
2023-05-24T23:48:47.601Z,15.67
2023-05-24T23:51:14.342Z,15.63
2023-05-24T23:53:41.054Z,15.63
2023-05-24T23:56:07.757Z,15.60
2023-05-24T23:58:34.748Z,15.65
